Terminal Aerodrome Forecast
Issued by NWS

Current Version | Previous Version | Text Only | Print | Product List | Glossary Off
Versions: 1 2 3 4 5 6 7 8 9 10 11 12 13 14 15 16 17 18 19

014
FTUS41 KPBZ 252131 AAA
TAFHLG
TAF AMD
KHLG 252131Z 2522/2618 23008KT P6SM VCTS BKN035CB
     FM260200 24006KT P6SM VCSH SCT035
     FM260700 27005KT P6SM SCT015=

USA.gov is the U.S. government's official web portal to all federal, state and local government web resources and services.